Time;durP1;ratioP1;P1;durP2;ratioP2;P2;SDS_P1;SDS_P2;PMS_P1;PMS_P2;Temp;Humidity;BMP_temperature;BMP_pressure;BME280_temperature;BME280_humidity;BME280_pressure;Samples;Min_cycle;Max_cycle;Signal;HPM_P1;HPM_P2
2023/08/25 00:00:38;;;;;;;17.02;15.55;;;;;;;;;;5064661;28;20222;-61
2023/08/25 00:03:05;;;;;;;16.52;14.98;;;;;;;;;;5062679;28;20230;-61
2023/08/25 00:05:36;;;;;;;18.83;16.90;;;;;;;;;;5061637;28;20220;-62
2023/08/25 00:08:02;;;;;;;17.35;15.30;;;;;;;;;;5059951;28;20273;-61
2023/08/25 00:10:28;;;;;;;17.52;15.93;;;;;;;;;;5065871;28;20199;-61
2023/08/25 00:12:55;;;;;;;21.20;16.50;;;;;;;;;;5064124;28;20255;-61
2023/08/25 00:15:23;;;;;;;16.25;14.70;;;;;;;;;;5066413;28;20234;-60
2023/08/25 00:17:50;;;;;;;17.23;15.48;;;;;;;;;;5060262;28;20206;-60
2023/08/25 00:20:16;;;;;;;17.23;15.77;;;;;;;;;;5055609;28;20316;-60
2023/08/25 00:22:43;;;;;;;17.10;15.60;;;;;;;;;;5056516;28;20873;-61
2023/08/25 00:25:09;;;;;;;16.70;15.38;;;;;;;;;;5057359;28;20210;-61
2023/08/25 00:27:36;;;;;;;16.65;15.32;;;;;;;;;;5066436;28;20266;-61
2023/08/25 00:30:03;;;;;;;18.10;16.33;;;;;;;;;;5063935;28;20676;-60
2023/08/25 00:32:31;;;;;;;17.15;15.75;;;;;;;;;;5058305;28;20291;-60
2023/08/25 00:34:57;;;;;;;18.27;15.85;;;;;;;;;;5054200;28;20195;-61
2023/08/25 00:37:24;;;;;;;18.08;16.50;;;;;;;;;;5055609;28;20261;-60
2023/08/25 00:39:50;;;;;;;16.77;15.32;;;;;;;;;;5064097;28;20258;-61
2023/08/25 00:42:17;;;;;;;17.10;15.60;;;;;;;;;;5064596;28;20781;-61
2023/08/25 00:44:43;;;;;;;18.17;16.58;;;;;;;;;;5060481;28;20676;-61
2023/08/25 00:47:10;;;;;;;19.75;16.75;;;;;;;;;;5063400;28;20239;-61
2023/08/25 00:49:38;;;;;;;18.13;16.40;;;;;;;;;;5056682;28;20260;-60
2023/08/25 00:52:04;;;;;;;18.58;16.92;;;;;;;;;;5061841;28;20222;-61
2023/08/25 00:54:34;;;;;;;17.20;15.75;;;;;;;;;;5055138;28;20236;-61
2023/08/25 00:57:00;;;;;;;16.25;14.82;;;;;;;;;;5061964;28;20194;-61
2023/08/25 00:59:27;;;;;;;17.48;16.05;;;;;;;;;;5047713;28;20280;-60
2023/08/25 01:01:54;;;;;;;18.33;16.45;;;;;;;;;;5058102;28;20315;-60
2023/08/25 01:04:20;;;;;;;17.33;15.90;;;;;;;;;;5062258;28;20202;-61
2023/08/25 01:06:48;;;;;;;16.73;15.23;;;;;;;;;;5053375;28;20210;-60
2023/08/25 01:09:15;;;;;;;17.48;15.90;;;;;;;;;;5058850;28;20857;-60
2023/08/25 01:11:45;;;;;;;18.45;16.80;;;;;;;;;;5061198;28;20630;-61
2023/08/25 01:14:20;;;;;;;17.90;16.25;;;;;;;;;;5061891;28;20206;-60
2023/08/25 01:16:51;;;;;;;17.10;15.55;;;;;;;;;;5064851;28;20660;-60
2023/08/25 01:19:28;;;;;;;24.52;17.23;;;;;;;;;;5060472;28;20233;-61
2023/08/25 01:21:59;;;;;;;17.73;16.17;;;;;;;;;;5056841;28;20231;-60
2023/08/25 01:24:29;;;;;;;17.70;16.05;;;;;;;;;;5064208;28;20260;-60
2023/08/25 01:26:57;;;;;;;17.67;15.88;;;;;;;;;;5064281;28;20206;-61
2023/08/25 01:29:23;;;;;;;18.23;16.65;;;;;;;;;;5054312;28;20309;-60
2023/08/25 01:31:50;;;;;;;17.73;16.30;;;;;;;;;;5062766;28;20237;-60
2023/08/25 01:34:17;;;;;;;18.33;16.70;;;;;;;;;;5065462;28;20203;-60
2023/08/25 01:36:46;;;;;;;18.05;16.20;;;;;;;;;;5065712;28;20259;-60
2023/08/25 01:39:15;;;;;;;19.02;17.27;;;;;;;;;;5064992;28;20193;-60
2023/08/25 01:41:44;;;;;;;19.65;17.77;;;;;;;;;;5063562;28;20242;-61
2023/08/25 01:44:13;;;;;;;22.10;17.95;;;;;;;;;;5059277;28;20520;-60
2023/08/25 01:46:42;;;;;;;19.38;17.63;;;;;;;;;;5059418;28;21143;-61
2023/08/25 01:49:09;;;;;;;18.30;16.73;;;;;;;;;;5049232;28;20205;-60
2023/08/25 01:51:36;;;;;;;19.15;17.55;;;;;;;;;;5060103;28;20248;-60
2023/08/25 01:54:03;;;;;;;18.85;17.05;;;;;;;;;;5064902;28;20850;-60
2023/08/25 01:56:29;;;;;;;19.13;17.42;;;;;;;;;;5058966;28;20672;-60
2023/08/25 01:58:56;;;;;;;19.80;17.55;;;;;;;;;;5064358;28;20237;-60
2023/08/25 02:01:25;;;;;;;18.98;17.38;;;;;;;;;;5057907;28;20250;-60
2023/08/25 02:03:52;;;;;;;19.35;17.70;;;;;;;;;;5060319;28;20209;-60
2023/08/25 02:06:19;;;;;;;21.20;18.15;;;;;;;;;;5061240;28;20285;-61
2023/08/25 02:08:45;;;;;;;19.38;17.58;;;;;;;;;;5063142;28;20194;-60
2023/08/25 02:11:12;;;;;;;19.13;17.27;;;;;;;;;;5060256;28;20653;-60
2023/08/25 02:13:38;;;;;;;18.85;17.10;;;;;;;;;;5056388;28;21089;-61
2023/08/25 02:16:05;;;;;;;20.15;18.20;;;;;;;;;;5057795;28;20227;-60
2023/08/25 02:18:33;;;;;;;18.17;16.58;;;;;;;;;;5061814;28;20248;-61
2023/08/25 02:20:59;;;;;;;18.92;17.30;;;;;;;;;;5049671;28;20219;-60
2023/08/25 02:23:26;;;;;;;20.48;18.08;;;;;;;;;;5049365;28;20280;-61
2023/08/25 02:25:52;;;;;;;19.38;17.27;;;;;;;;;;5055483;28;20249;-60
2023/08/25 02:28:19;;;;;;;20.15;17.88;;;;;;;;;;5048882;28;20590;-60
2023/08/25 02:30:45;;;;;;;19.60;17.85;;;;;;;;;;5049969;28;20233;-61
2023/08/25 02:33:12;;;;;;;18.92;17.02;;;;;;;;;;5047118;28;21720;-61
2023/08/25 02:35:40;;;;;;;19.10;17.40;;;;;;;;;;5052719;28;20195;-60
2023/08/25 02:38:08;;;;;;;21.23;17.23;;;;;;;;;;5055829;28;20199;-61
2023/08/25 02:40:35;;;;;;;21.67;17.10;;;;;;;;;;5053313;28;20223;-61
2023/08/25 02:43:02;;;;;;;20.17;18.23;;;;;;;;;;5061415;28;20231;-60
2023/08/25 02:45:29;;;;;;;20.10;18.27;;;;;;;;;;5060454;28;20202;-61
2023/08/25 02:47:55;;;;;;;19.90;17.80;;;;;;;;;;5058524;28;20206;-60
2023/08/25 02:50:22;;;;;;;19.17;17.45;;;;;;;;;;5059399;28;20232;-60
2023/08/25 02:52:50;;;;;;;18.88;17.02;;;;;;;;;;5057500;28;20261;-60
2023/08/25 02:55:18;;;;;;;19.90;17.50;;;;;;;;;;5059904;28;20203;-60
2023/08/25 02:57:45;;;;;;;18.77;17.05;;;;;;;;;;5061331;28;20206;-61
2023/08/25 03:00:13;;;;;;;19.20;17.58;;;;;;;;;;5058084;28;20206;-60
2023/08/25 03:02:40;;;;;;;18.95;17.25;;;;;;;;;;5062523;28;20199;-60
2023/08/25 03:05:06;;;;;;;20.63;18.63;;;;;;;;;;5065158;28;20288;-60
2023/08/25 03:07:33;;;;;;;18.40;16.80;;;;;;;;;;5064695;28;20263;-61
2023/08/25 03:10:02;;;;;;;18.95;16.92;;;;;;;;;;5068573;28;20289;-60
2023/08/25 03:12:28;;;;;;;22.13;18.70;;;;;;;;;;5065032;28;20217;-60
2023/08/25 03:14:55;;;;;;;22.02;18.13;;;;;;;;;;5067264;28;20206;-61
2023/08/25 03:17:21;;;;;;;21.50;17.85;;;;;;;;;;5061158;28;20276;-61
2023/08/25 03:19:48;;;;;;;21.25;19.08;;;;;;;;;;5056123;28;20198;-61
2023/08/25 03:22:15;;;;;;;18.98;17.15;;;;;;;;;;5056324;28;20250;-61
2023/08/25 03:24:42;;;;;;;17.92;16.38;;;;;;;;;;5063854;28;20287;-60
2023/08/25 03:27:10;;;;;;;19.02;17.02;;;;;;;;;;5062565;28;20194;-60
2023/08/25 03:29:36;;;;;;;18.20;16.58;;;;;;;;;;5065383;28;20668;-60
2023/08/25 03:32:03;;;;;;;28.15;18.38;;;;;;;;;;5060255;28;20286;-60
2023/08/25 03:34:30;;;;;;;20.25;17.55;;;;;;;;;;5063058;28;20199;-60
2023/08/25 03:36:56;;;;;;;21.92;18.00;;;;;;;;;;5059748;28;20199;-61
2023/08/25 03:39:24;;;;;;;26.65;17.50;;;;;;;;;;5056825;28;20198;-61
2023/08/25 03:41:50;;;;;;;30.05;17.60;;;;;;;;;;5057377;28;20239;-62
2023/08/25 03:44:18;;;;;;;21.63;17.63;;;;;;;;;;5060762;28;20664;-61
2023/08/25 03:46:45;;;;;;;16.88;15.25;;;;;;;;;;5059840;28;20704;-61
2023/08/25 03:49:11;;;;;;;16.83;15.35;;;;;;;;;;5066507;28;20289;-62
2023/08/25 03:51:38;;;;;;;19.33;15.35;;;;;;;;;;5061855;28;20222;-61
2023/08/25 03:54:06;;;;;;;19.35;17.25;;;;;;;;;;5068121;28;20295;-61
2023/08/25 03:56:32;;;;;;;17.67;15.88;;;;;;;;;;5066719;28;20295;-61
2023/08/25 03:58:59;;;;;;;17.98;15.90;;;;;;;;;;5056752;28;20649;-61
2023/08/25 04:01:27;;;;;;;17.75;16.15;;;;;;;;;;5061896;28;20260;-61
2023/08/25 04:03:53;;;;;;;29.73;26.23;;;;;;;;;;5065249;28;20194;-61
2023/08/25 04:06:19;;;;;;;20.88;18.98;;;;;;;;;;5066781;28;20339;-61
2023/08/25 04:08:46;;;;;;;21.67;16.95;;;;;;;;;;5065153;28;20207;-61
2023/08/25 04:11:12;;;;;;;19.20;17.20;;;;;;;;;;5058083;28;20227;-61
2023/08/25 04:13:39;;;;;;;16.92;15.45;;;;;;;;;;5066357;28;20230;-61
2023/08/25 04:16:05;;;;;;;18.15;16.30;;;;;;;;;;5064239;28;20253;-60
2023/08/25 04:18:33;;;;;;;19.00;15.80;;;;;;;;;;5065137;28;20290;-61
2023/08/25 04:20:59;;;;;;;18.75;15.43;;;;;;;;;;5061078;28;21136;-62
2023/08/25 04:23:26;;;;;;;18.45;16.63;;;;;;;;;;5059707;28;20234;-61
2023/08/25 04:25:52;;;;;;;16.77;15.38;;;;;;;;;;5064236;28;20421;-61
2023/08/25 04:28:19;;;;;;;17.77;15.90;;;;;;;;;;5057762;28;20199;-61
2023/08/25 04:30:45;;;;;;;17.55;15.80;;;;;;;;;;5051469;28;20568;-61
2023/08/25 04:33:12;;;;;;;21.92;16.20;;;;;;;;;;5062950;28;20222;-61
2023/08/25 04:35:39;;;;;;;26.38;22.95;;;;;;;;;;5067008;28;20290;-61
2023/08/25 04:38:06;;;;;;;33.60;28.95;;;;;;;;;;5067458;28;20282;-61
2023/08/25 04:40:33;;;;;;;29.98;21.88;;;;;;;;;;5067511;28;20198;-61
2023/08/25 04:42:59;;;;;;;26.65;19.42;;;;;;;;;;5064970;28;20230;-61
2023/08/25 04:45:26;;;;;;;32.10;24.92;;;;;;;;;;5063358;28;20610;-61
2023/08/25 04:47:53;;;;;;;21.85;19.05;;;;;;;;;;5062596;28;20297;-61
2023/08/25 04:50:19;;;;;;;21.25;17.55;;;;;;;;;;5062015;28;20232;-62
2023/08/25 04:52:47;;;;;;;17.70;15.90;;;;;;;;;;5064848;28;20222;-62
2023/08/25 04:55:14;;;;;;;20.23;16.58;;;;;;;;;;5060872;28;20556;-62
2023/08/25 04:57:41;;;;;;;26.02;16.88;;;;;;;;;;5063252;28;20227;-62
2023/08/25 05:00:08;;;;;;;25.45;18.95;;;;;;;;;;5064801;28;20209;-62
2023/08/25 05:02:35;;;;;;;21.67;19.70;;;;;;;;;;5062728;28;20228;-62
2023/08/25 05:05:03;;;;;;;22.27;18.48;;;;;;;;;;5065605;28;20353;-62
2023/08/25 05:07:30;;;;;;;24.95;19.75;;;;;;;;;;5059722;28;20211;-62
2023/08/25 05:09:57;;;;;;;26.05;17.77;;;;;;;;;;5062255;28;20572;-62
2023/08/25 05:12:24;;;;;;;22.35;16.85;;;;;;;;;;5056970;28;20482;-62
2023/08/25 05:14:50;;;;;;;36.85;29.20;;;;;;;;;;5056503;28;20284;-61
2023/08/25 05:17:17;;;;;;;34.92;28.13;;;;;;;;;;5062630;28;20237;-62
2023/08/25 05:19:43;;;;;;;26.33;23.42;;;;;;;;;;5062959;28;20226;-62
2023/08/25 05:22:10;;;;;;;22.98;20.77;;;;;;;;;;5056288;28;20730;-62
2023/08/25 05:24:37;;;;;;;22.95;20.55;;;;;;;;;;5059542;28;20195;-62
2023/08/25 05:27:05;;;;;;;20.80;18.52;;;;;;;;;;5063284;28;20214;-62
2023/08/25 05:29:31;;;;;;;21.35;17.73;;;;;;;;;;5062717;28;20676;-61
2023/08/25 05:31:58;;;;;;;17.60;16.10;;;;;;;;;;5060813;28;20229;-62
2023/08/25 05:34:26;;;;;;;24.63;16.70;;;;;;;;;;5058569;28;20206;-62
2023/08/25 05:36:52;;;;;;;20.77;17.77;;;;;;;;;;5061648;28;20222;-62
2023/08/25 05:39:19;;;;;;;23.55;18.23;;;;;;;;;;5058562;28;20230;-62
2023/08/25 05:41:45;;;;;;;20.58;17.05;;;;;;;;;;5051816;28;20288;-62
2023/08/25 05:44:13;;;;;;;25.38;17.65;;;;;;;;;;5051591;28;20217;-61
2023/08/25 05:46:40;;;;;;;21.48;16.70;;;;;;;;;;5056779;28;20272;-62
2023/08/25 05:49:06;;;;;;;18.88;17.02;;;;;;;;;;5062654;28;20286;-62
2023/08/25 05:51:33;;;;;;;19.88;16.60;;;;;;;;;;5057873;28;20594;-62
2023/08/25 05:53:59;;;;;;;16.85;14.73;;;;;;;;;;5054838;28;20218;-62
2023/08/25 05:56:27;;;;;;;19.92;15.10;;;;;;;;;;5060966;28;20198;-62
2023/08/25 05:58:54;;;;;;;17.83;15.68;;;;;;;;;;5056504;28;20207;-62
2023/08/25 06:01:22;;;;;;;15.30;13.88;;;;;;;;;;5062428;28;20238;-62
2023/08/25 06:03:48;;;;;;;17.48;14.80;;;;;;;;;;5059223;28;20218;-62
2023/08/25 06:06:14;;;;;;;16.15;14.55;;;;;;;;;;5059867;28;20717;-61
2023/08/25 06:08:41;;;;;;;17.20;15.40;;;;;;;;;;5058478;28;20203;-62
2023/08/25 06:11:08;;;;;;;27.08;22.70;;;;;;;;;;5061633;28;20198;-62
2023/08/25 06:13:34;;;;;;;29.10;26.00;;;;;;;;;;5059177;28;20825;-63
2023/08/25 06:16:01;;;;;;;16.00;13.65;;;;;;;;;;5061264;28;20272;-62
2023/08/25 06:18:29;;;;;;;18.15;14.40;;;;;;;;;;5060462;28;20677;-62
2023/08/25 06:20:55;;;;;;;15.55;13.43;;;;;;;;;;5062740;28;20205;-62
2023/08/25 06:23:21;;;;;;;17.23;13.85;;;;;;;;;;5058184;28;20218;-63
2023/08/25 06:25:49;;;;;;;13.95;12.73;;;;;;;;;;5061983;28;20203;-63
2023/08/25 06:28:15;;;;;;;13.65;12.43;;;;;;;;;;5060932;28;20271;-63
2023/08/25 06:30:42;;;;;;;14.55;13.27;;;;;;;;;;5054690;28;20238;-63
2023/08/25 06:33:09;;;;;;;16.73;12.57;;;;;;;;;;5052253;28;20195;-63
2023/08/25 06:35:37;;;;;;;13.60;11.98;;;;;;;;;;5049861;28;20207;-63
2023/08/25 06:38:04;;;;;;;13.30;12.07;;;;;;;;;;5049223;28;20203;-63
2023/08/25 06:40:33;;;;;;;14.70;13.15;;;;;;;;;;5049815;28;20746;-63
2023/08/25 06:43:00;;;;;;;16.50;12.18;;;;;;;;;;5052668;28;20590;-63
2023/08/25 06:45:27;;;;;;;14.07;12.88;;;;;;;;;;5054461;28;20866;-62
2023/08/25 06:47:54;;;;;;;14.73;13.30;;;;;;;;;;5054743;28;20708;-62
2023/08/25 06:50:21;;;;;;;16.10;13.18;;;;;;;;;;5052886;28;20202;-63
2023/08/25 06:52:49;;;;;;;14.68;12.80;;;;;;;46.37;nan;95230.19;5059570;28;20223;-63
2023/08/25 06:55:17;;;;;;;13.30;12.20;;;;;;;47.16;nan;95219.75;5061388;28;20706;-64
2023/08/25 06:57:44;;;;;;;14.25;12.38;;;;;;;47.11;nan;95204.44;5059543;28;20289;-64
2023/08/25 07:00:13;;;;;;;12.60;11.80;;;;;;;47.37;nan;95203.22;5055532;28;20714;-62
2023/08/25 07:02:41;;;;;;;13.50;11.95;;;;;;;47.82;nan;95211.28;5056046;28;20787;-63
2023/08/25 07:05:08;;;;;;;16.35;11.82;;;;;;;47.71;nan;95216.75;5053664;28;20203;-65
2023/08/25 07:07:36;;;;;;;14.80;12.00;;;;;;;48.18;nan;95214.53;5053829;28;20209;-63
2023/08/25 07:10:05;;;;;;;14.23;11.50;;;;;;;48.54;nan;95223.06;5054737;28;20325;-63
2023/08/25 07:12:31;;;;;;;12.82;11.80;;;;;;;;;;5059264;28;21207;-65
2023/08/25 07:14:58;;;;;;;11.43;10.13;;;;;;;;;;5050544;28;20264;-65
2023/08/25 07:17:24;;;;;;;10.73;9.75;;;;;;;;;;5052451;28;20286;-63
2023/08/25 07:19:51;;;;;;;10.70;10.10;;;;;;;;;;5051083;28;20211;-63
2023/08/25 07:22:18;;;;;;;10.93;9.93;;;;;;;49.47;nan;95225.19;5052571;28;20304;-63
2023/08/25 07:24:46;;;;;;;12.55;11.23;;;;;;;49.38;nan;95226.94;5055231;28;20195;-65
2023/08/25 07:27:13;;;;;;;10.52;9.60;;;;;;;;;;5052417;28;20199;-65
2023/08/25 07:29:40;;;;;;;11.85;9.50;;;;;;;;;;5051629;28;20202;-65
2023/08/25 07:32:08;;;;;;;12.05;9.95;;;;;;;49.67;nan;95235.72;5050343;28;20202;-65
2023/08/25 07:34:36;;;;;;;12.95;11.75;;;;;;;49.72;nan;95221.34;5059764;28;20228;-66
2023/08/25 07:37:02;;;;;;;13.57;12.23;;;;;;;;;;5051568;28;20205;-66
2023/08/25 07:39:29;;;;;;;11.73;10.57;;;;;;;49.09;nan;95234.31;5056863;28;20210;-66
2023/08/25 07:41:55;;;;;;;10.38;9.65;;;;;;;;;;5054079;28;20291;-65
2023/08/25 07:44:23;;;;;;;11.35;10.43;;;;;;;;;;5057497;28;20256;-66
2023/08/25 07:46:50;;;;;;;16.42;10.65;;;;;;;50.06;nan;95229.16;5063910;28;20220;-65
2023/08/25 07:49:16;;;;;;;12.07;10.88;;;;;;;;;;5060437;28;20198;-66
2023/08/25 07:51:43;;;;;;;10.48;9.60;;;;;;;;;;5050343;28;20287;-65
2023/08/25 07:54:09;;;;;;;12.90;10.05;;;;;;;;;;5061270;28;20633;-66
2023/08/25 07:56:36;;;;;;;11.40;10.73;;;;;;;;;;5060342;28;20220;-67
2023/08/25 07:59:03;;;;;;;10.27;9.35;;;;;;;51.28;nan;95216.88;5056376;28;20252;-66
2023/08/25 08:01:31;;;;;;;10.70;9.68;;;;;;;;;;5054689;28;20293;-66
2023/08/25 08:03:58;;;;;;;10.07;9.38;;;;;;;51.35;nan;95230.78;5052924;28;20720;-65
2023/08/25 08:06:25;;;;;;;11.50;8.95;;;;;;;51.30;nan;95227.41;5056965;28;20209;-66
2023/08/25 08:08:52;;;;;;;9.98;9.05;;;;;;;51.26;nan;95221.78;5060052;28;20233;-66
2023/08/25 08:11:18;;;;;;;9.27;8.52;;;;;;;;;;5057334;28;20688;-66
2023/08/25 08:13:45;;;;;;;10.60;7.65;;;;;;;;;;5062543;28;20236;-64
2023/08/25 08:16:11;;;;;;;8.27;7.78;;;;;;;;;;5062263;28;20257;-64
2023/08/25 08:18:39;;;;;;;9.05;8.05;;;;;;;;;;5058594;28;20814;-63
2023/08/25 08:21:05;;;;;;;7.82;7.30;;;;;;;;;;5063634;28;20583;-61
2023/08/25 08:23:33;;;;;;;9.75;7.93;;;;;;;;;;5059075;28;20218;-63
2023/08/25 08:25:59;;;;;;;9.05;8.23;;;;;;;;;;5060713;28;20221;-64
2023/08/25 08:28:26;;;;;;;8.52;7.88;;;;;;;;;;5057946;28;20260;-65
2023/08/25 08:30:52;;;;;;;6.60;6.03;;;;;;;;;;5059619;28;20202;-66
2023/08/25 08:33:19;;;;;;;6.55;6.05;;;;;;;;;;5061707;28;20632;-65
2023/08/25 08:35:47;;;;;;;7.30;6.80;;;;;;;50.70;nan;95193.16;5060962;28;20238;-65
2023/08/25 08:38:13;;;;;;;6.75;6.28;;;;;;;;;;5063704;28;20302;-65
2023/08/25 08:40:40;;;;;;;7.80;7.30;;;;;;;;;;5056648;28;20263;-66
2023/08/25 08:43:10;;;;;;;6.65;6.15;;;;;;;51.69;nan;95153.66;5061500;28;20272;-66
2023/08/25 08:45:39;;;;;;;6.63;6.30;;;;;;;;;;5060925;28;20226;-66
2023/08/25 08:48:06;;;;;;;6.18;5.88;;;;;;;;;;5063632;28;20197;-65
2023/08/25 08:50:34;;;;;;;7.47;6.05;;;;;;;;;;5064292;28;20225;-65
2023/08/25 08:53:04;;;;;;;9.57;6.75;;;;;;;51.27;nan;95174.63;5058540;28;20311;-65
2023/08/25 08:55:32;;;;;;;6.80;6.30;;;;;;;50.58;nan;95181.19;5063874;28;20646;-66
2023/08/25 08:57:58;;;;;;;6.55;6.05;;;;;;;;;;5061132;28;20696;-65
2023/08/25 09:00:25;;;;;;;6.75;6.00;;;;;;;;;;5060964;28;20242;-65
2023/08/25 09:02:53;;;;;;;6.80;6.50;;;;;;;;;;5054469;28;20250;-65
2023/08/25 09:05:21;;;;;;;7.07;6.53;;;;;;;;;;5052789;28;20198;-65
2023/08/25 09:07:49;;;;;;;8.95;8.23;;;;;;;;;;5065005;28;20205;-64
2023/08/25 09:10:17;;;;;;;6.03;5.70;;;;;;;;;;5059142;28;20204;-65
2023/08/25 09:12:43;;;;;;;6.78;6.10;;;;;;;;;;5050057;28;20203;-64
2023/08/25 09:15:24;;;;;;;6.70;6.10;;;;;;;;;;5051205;28;20267;-65
2023/08/25 09:17:53;;;;;;;8.88;5.88;;;;;;;;;;5063120;28;20198;-66
2023/08/25 09:20:22;;;;;;;7.15;6.45;;;;;;;;;;5064492;28;20198;-65
2023/08/25 09:22:54;;;;;;;7.95;7.20;;;;;;;;;;5063341;28;20221;-63
2023/08/25 09:25:22;;;;;;;13.57;5.97;;;;;;;42.20;nan;95156.13;5063065;28;20207;-64
2023/08/25 09:27:48;;;;;;;5.63;5.20;;;;;;;;;;5059127;28;20218;-64
2023/08/25 09:30:15;;;;;;;7.00;6.35;;;;;;;;;;5060781;28;20225;-64
2023/08/25 09:32:41;;;;;;;7.43;6.82;;;;;;;;;;5054449;28;20797;-66
2023/08/25 09:35:11;;;;;;;10.82;8.25;;;;;;;;;;5062119;28;20230;-64
2023/08/25 09:37:41;;;;;;;8.43;7.80;;;;;;;;;;5059390;28;20684;-64
2023/08/25 09:40:11;;;;;;;7.93;7.10;;;;;;;;;;5056000;28;20755;-64
2023/08/25 09:42:39;;;;;;;8.60;6.90;;;;;;;;;;5062086;28;20247;-64
2023/08/25 09:45:06;;;;;;;13.63;7.80;;;;;;;;;;5051832;28;20559;-63
2023/08/25 09:47:32;;;;;;;9.95;8.80;;;;;;;;;;5056085;28;20210;-63
2023/08/25 09:49:59;;;;;;;11.48;6.53;;;;;;;;;;5066196;28;20222;-64
2023/08/25 09:52:26;;;;;;;8.18;6.03;;;;;;;;;;5068186;28;20283;-64
2023/08/25 09:54:53;;;;;;;6.72;6.32;;;;;;;;;;5068361;28;20202;-63
2023/08/25 09:57:20;;;;;;;5.47;5.07;;;;;;;;;;5068087;28;20684;-64
2023/08/25 09:59:48;;;;;;;5.78;5.13;;;;;;;;;;5068206;28;20202;-63
2023/08/25 10:02:15;;;;;;;8.63;5.63;;;;;;;;;;5068553;28;20206;-64
2023/08/25 10:04:41;;;;;;;5.47;5.18;;;;;;;;;;5070138;28;20254;-63
2023/08/25 10:07:08;;;;;;;6.00;5.47;;;;;;;;;;5070080;28;20260;-63
2023/08/25 10:09:35;;;;;;;5.47;4.97;;;;;;;;;;5069954;28;20680;-64
2023/08/25 10:12:04;;;;;;;7.95;5.18;;;;;;;;;;5068159;28;20248;-65
2023/08/25 10:14:31;;;;;;;6.78;5.05;;;;;;;;;;5068681;28;20202;-64
2023/08/25 10:17:01;;;;;;;4.88;4.55;;;;;;;;;;5068534;28;20256;-63
2023/08/25 10:19:29;;;;;;;5.93;4.85;;;;;;;;;;5067795;28;20264;-62
2023/08/25 10:21:56;;;;;;;6.05;5.45;;;;;;;;;;5068389;28;20741;-64
2023/08/25 10:24:23;;;;;;;6.32;5.72;;;;;;;;;;5067959;28;20658;-64
2023/08/25 10:26:50;;;;;;;10.95;5.18;;;;;;;;;;5057169;28;20205;-63
2023/08/25 10:29:18;;;;;;;5.10;4.70;;;;;;;;;;5069348;28;20202;-64
2023/08/25 10:31:47;;;;;;;5.07;4.70;;;;;;;;;;5056843;28;20206;-64
2023/08/25 10:34:35;;;;;;;6.15;5.30;;;;;;;;;;5069611;28;20211;-63
2023/08/25 10:37:09;;;;;;;8.95;5.90;;;;;;;;;;5070476;28;20198;-64
2023/08/25 10:39:48;;;;;;;5.07;4.53;;;;;;;;;;5069485;28;20694;-64
2023/08/25 10:42:18;;;;;;;5.43;5.07;;;;;;;;;;5068840;28;20261;-64
2023/08/25 10:44:46;;;;;;;5.78;5.38;;;;;;;;;;5055908;28;20257;-64
2023/08/25 10:47:12;;;;;;;4.60;4.38;;;;;;;;;;5067849;28;20567;-64
2023/08/25 10:49:40;;;;;;;5.68;5.28;;;;;;;;;;5068326;28;20728;-65
2023/08/25 10:52:14;;;;;;;5.70;4.50;;;;;;;;;;5068292;28;20305;-64
2023/08/25 10:54:41;;;;;;;6.47;4.50;;;;;;;;;;5067921;28;20230;-64
2023/08/25 10:57:18;;;;;;;6.55;5.60;;;;;;;;;;5067923;28;20242;-63
2023/08/25 10:59:46;;;;;;;7.00;5.13;;;;;;;;;;5068202;28;20205;-64
2023/08/25 11:02:33;;;;;;;4.40;4.00;;;;;;;;;;5067974;28;20278;-64
2023/08/25 11:05:14;;;;;;;7.50;6.90;;;;;;;;;;5067891;28;20230;-63
2023/08/25 11:07:45;;;;;;;5.95;5.63;;;;;;;;;;5068756;28;20229;-63
2023/08/25 11:10:12;;;;;;;4.88;4.40;;;;;;;;;;5072235;28;20668;-65
2023/08/25 11:12:38;;;;;;;5.63;5.22;;;;;;;;;;5073996;28;20206;-64
2023/08/25 11:15:08;;;;;;;5.80;5.30;;;;;;;;;;5073092;28;20194;-64
2023/08/25 11:17:34;;;;;;;5.57;4.85;;;;;;;;;;5074373;28;20287;-64
2023/08/25 11:20:01;;;;;;;6.63;5.35;;;;;;;;;;5073257;28;20297;-64
2023/08/25 11:22:28;;;;;;;5.93;5.03;;;;;;;;;;5073508;28;20210;-64
2023/08/25 11:24:55;;;;;;;5.20;4.80;;;;;;;;;;5073087;28;20737;-63
2023/08/25 11:27:23;;;;;;;5.53;5.15;;;;;;;;;;5073408;28;20348;-64
2023/08/25 11:29:50;;;;;;;4.97;4.57;;;;;;;;;;5071805;28;20710;-64
2023/08/25 11:32:16;;;;;;;9.75;5.40;;;;;;;;;;5073332;28;20206;-63
2023/08/25 11:34:46;;;;;;;10.70;6.47;;;;;;;;;;5072878;28;20226;-64
2023/08/25 11:37:13;;;;;;;6.95;5.70;;;;;;;;;;5072993;28;20206;-63
2023/08/25 11:39:42;;;;;;;6.18;4.20;;;;;;;;;;5072714;28;20237;-63
2023/08/25 11:42:10;;;;;;;8.23;4.95;;;;;;;;;;5073447;28;20303;-64
2023/08/25 11:44:39;;;;;;;5.10;4.63;;;;;;;;;;5072534;28;20225;-63
2023/08/25 11:47:06;;;;;;;7.75;4.30;;;;;;;;;;5073004;28;20275;-64
2023/08/25 11:49:33;;;;;;;5.78;4.60;;;;;;;;;;5084942;28;20733;-63
2023/08/25 11:52:00;;;;;;;6.85;5.28;;;;;;;;;;5084912;28;20225;-64
2023/08/25 11:54:26;;;;;;;7.05;4.88;;;;;;;;;;5084677;28;20680;-64
2023/08/25 11:56:53;;;;;;;9.80;5.80;;;;;;;;;;5084459;28;20229;-63
2023/08/25 11:59:21;;;;;;;11.15;5.22;;;;;;;;;;5060323;28;20563;-64
2023/08/25 12:01:49;;;;;;;6.38;4.55;;;;;;;;;;5072216;28;20542;-64
2023/08/25 12:04:22;;;;;;;6.50;5.50;;;;;;;;;;5072834;28;20295;-63
2023/08/25 12:06:51;;;;;;;6.80;5.40;;;;;;;;;;5072102;28;20202;-65
2023/08/25 12:09:17;;;;;;;6.43;4.65;;;;;;;;;;5072077;28;20244;-64
2023/08/25 12:11:44;;;;;;;10.98;5.28;;;;;;;;;;5071995;28;20285;-63
2023/08/25 12:14:24;;;;;;;5.13;4.72;;;;;;;;;;5072167;28;20624;-64
2023/08/25 12:16:51;;;;;;;5.30;4.90;;;;;;;;;;5072337;28;20230;-63
2023/08/25 12:19:17;;;;;;;9.73;5.05;;;;;;;;;;5072228;28;20213;-64
2023/08/25 12:21:43;;;;;;;10.70;5.50;;;;;;;;;;5072178;28;20202;-63
2023/08/25 12:24:10;;;;;;;5.93;4.60;;;;;;;;;;5072356;28;20326;-64
2023/08/25 12:26:37;;;;;;;10.60;4.63;;;;;;;;;;5071728;28;20293;-64
2023/08/25 12:29:06;;;;;;;6.40;4.95;;;;;;;;;;5071410;28;20244;-64
2023/08/25 12:31:34;;;;;;;9.30;4.72;;;;;;;;;;5071821;28;20255;-64
2023/08/25 12:34:00;;;;;;;5.00;4.45;;;;;;;;;;5084409;28;20275;-65
2023/08/25 12:36:27;;;;;;;5.22;4.72;;;;;;;;;;5085713;28;20523;-63
2023/08/25 12:38:53;;;;;;;5.07;4.68;;;;;;;;;;5072071;28;20285;-63
2023/08/25 12:41:20;;;;;;;7.40;4.47;;;;;;;;;;5071510;28;20235;-63
2023/08/25 12:43:46;;;;;;;12.57;5.07;;;;;;;;;;5069540;28;20670;-64
2023/08/25 12:46:13;;;;;;;9.32;5.30;;;;;;;;;;5069577;28;20614;-63
2023/08/25 12:48:41;;;;;;;8.35;4.60;;;;;;;;;;5082511;28;20209;-63
2023/08/25 12:51:07;;;;;;;6.38;3.55;;;;;;;;;;5069822;28;20647;-63
2023/08/25 12:53:34;;;;;;;6.13;4.95;;;;;;;;;;5069675;28;20731;-63
2023/08/25 12:56:00;;;;;;;5.28;3.75;;;;;;;;;;5070159;28;20209;-63
2023/08/25 12:58:28;;;;;;;7.30;4.13;;;;;;;;;;5069503;28;20226;-64
2023/08/25 13:00:54;;;;;;;8.25;4.05;;;;;;;;;;5057077;28;20207;-63
2023/08/25 13:03:21;;;;;;;10.52;4.40;;;;;;;;;;5070111;28;20630;-63
2023/08/25 13:05:48;;;;;;;6.22;5.28;;;;;;;;;;5070310;28;20253;-65
2023/08/25 13:08:15;;;;;;;13.30;6.18;;;;;;;;;;5070835;28;20203;-63
2023/08/25 13:10:41;;;;;;;5.75;4.57;;;;;;;;;;5071921;28;20255;-63
2023/08/25 13:13:08;;;;;;;7.95;4.88;;;;;;;;;;5070919;28;20209;-63
2023/08/25 13:15:34;;;;;;;5.50;4.70;;;;;;;;;;5071675;28;20268;-64
2023/08/25 13:18:01;;;;;;;9.40;4.35;;;;;;;;;;5071027;28;20295;-64
2023/08/25 13:20:27;;;;;;;5.55;4.97;;;;;;;;;;5071355;28;20203;-63
2023/08/25 13:22:55;;;;;;;5.82;4.38;;;;;;;;;;5070756;28;20210;-64
2023/08/25 13:25:21;;;;;;;6.22;3.95;;;;;;;;;;5071023;28;20218;-64
2023/08/25 13:27:48;;;;;;;6.10;3.35;;;;;;;;;;5070333;28;20268;-64
2023/08/25 13:30:14;;;;;;;12.10;3.80;;;;;;;;;;5070931;28;20256;-63
2023/08/25 13:32:41;;;;;;;12.77;4.70;;;;;;;;;;5082269;28;20202;-64
2023/08/25 13:35:08;;;;;;;8.10;4.57;;;;;;;;;;5070917;28;20631;-63
2023/08/25 13:37:35;;;;;;;7.72;4.32;;;;;;;;;;5072334;28;20281;-63
2023/08/25 13:40:04;;;;;;;6.75;4.32;;;;;;;;;;5082458;28;20271;-64
2023/08/25 13:42:31;;;;;;;10.70;4.35;;;;;;;;;;5070128;28;20812;-65
2023/08/25 13:44:58;;;;;;;5.70;3.78;;;;;;;;;;5070905;28;20222;-64
2023/08/25 13:47:24;;;;;;;11.25;4.07;;;;;;;;;;5070842;28;20267;-64
2023/08/25 13:49:51;;;;;;;10.05;4.53;;;;;;;;;;5070655;28;20260;-65
2023/08/25 13:52:17;;;;;;;4.53;4.13;;;;;;;;;;5070225;28;20288;-65
2023/08/25 13:54:44;;;;;;;8.00;3.90;;;;;;;;;;5071053;28;20226;-64
2023/08/25 13:57:12;;;;;;;8.13;3.80;;;;;;;;;;5070605;28;20210;-65
2023/08/25 13:59:38;;;;;;;11.02;4.40;;;;;;;;;;5070543;28;20202;-64
2023/08/25 14:02:05;;;;;;;11.63;4.68;;;;;;;;;;5070532;28;20267;-65
2023/08/25 14:04:31;;;;;;;10.32;4.20;;;;;;;;;;5070731;28;20253;-64
2023/08/25 14:06:58;;;;;;;9.10;4.00;;;;;;;;;;5070123;28;20558;-66
2023/08/25 14:09:24;;;;;;;6.13;3.53;;;;;;;;;;5070073;28;20647;-64
2023/08/25 14:11:51;;;;;;;6.05;4.13;;;;;;;;;;5069882;28;20259;-63
2023/08/25 14:14:19;;;;;;;4.80;3.92;;;;;;;;;;5070240;28;20706;-61